ΕΜΥ, Εθνική Μετεωρολογική Υπηρεσία - Δελτία Καιρού, Προγνώσεις

ΑΕΡΟΝΑΥΤΙΛΙΑ

GREEK AIRPORTS CODES

TAF LGTT 221000Z 2212/2221 02015KT 9999 SCT025=

EUROPEAN AIRPORTS CODES

LFPO 221500Z 22006KT 190V250 9999 SCT023 BKN076 19/15 Q1012TEMPO 4000 SHRA SCT030TCU=